createdAt,value
2022-12-31T00:01:16.582Z,98825.91
2022-12-31T00:03:44.766Z,98826.75
2022-12-31T00:06:21.300Z,98826.00
2022-12-31T00:08:49.192Z,98803.88
2022-12-31T00:11:16.685Z,98830.16
2022-12-31T00:13:44.500Z,98794.94
2022-12-31T00:16:25.092Z,98829.41
2022-12-31T00:18:55.896Z,98810.94
2022-12-31T00:21:23.186Z,98833.91
2022-12-31T00:23:50.344Z,98824.13
2022-12-31T00:26:19.846Z,98808.34
2022-12-31T00:28:48.095Z,98829.34
2022-12-31T00:31:17.946Z,98822.31
2022-12-31T00:33:45.976Z,98823.94
2022-12-31T00:36:22.449Z,98797.56
2022-12-31T00:38:51.168Z,98797.66
2022-12-31T00:41:19.537Z,98826.41
2022-12-31T00:43:46.655Z,98826.03
2022-12-31T00:46:14.471Z,98832.94
2022-12-31T00:48:41.894Z,98823.94
2022-12-31T00:51:10.909Z,98819.69
2022-12-31T00:53:38.476Z,98797.47
2022-12-31T00:56:08.503Z,98767.63
2022-12-31T00:58:35.800Z,98771.81
2022-12-31T01:01:17.817Z,98816.53
2022-12-31T01:03:45.530Z,98830.38
2022-12-31T01:06:13.012Z,98827.78
2022-12-31T01:08:40.232Z,98817.34
2022-12-31T01:11:19.655Z,98784.66
2022-12-31T01:13:50.560Z,98819.88
2022-12-31T01:16:19.590Z,98787.41
2022-12-31T01:18:46.726Z,98820.66
2022-12-31T01:21:14.534Z,98824.94
2022-12-31T01:23:42.505Z,98780.97
2022-12-31T01:26:12.477Z,98824.84
2022-12-31T01:28:39.884Z,98828.31
2022-12-31T01:31:09.497Z,98793.19
2022-12-31T01:33:37.123Z,98811.69
2022-12-31T01:36:06.576Z,98816.88
2022-12-31T01:38:34.912Z,98766.88
2022-12-31T01:41:02.504Z,98819.59
2022-12-31T01:43:56.533Z,98803.88
2022-12-31T01:47:01.005Z,98817.91
2022-12-31T01:49:53.836Z,98802.22
2022-12-31T01:52:20.821Z,98804.06
2022-12-31T01:54:55.771Z,98811.09
2022-12-31T01:57:25.106Z,98770.63
2022-12-31T01:59:53.498Z,98814.59
2022-12-31T02:02:20.719Z,98811.09
2022-12-31T02:04:51.158Z,98757.63
2022-12-31T02:07:18.042Z,98807.75
2022-12-31T02:09:45.116Z,98798.09
2022-12-31T02:12:12.473Z,98808.66
2022-12-31T02:14:41.747Z,98806.97
2022-12-31T02:17:27.426Z,98814.75
2022-12-31T02:20:27.895Z,98814.78
2022-12-31T02:23:12.327Z,98825.09
2022-12-31T02:25:48.865Z,98809.56
2022-12-31T02:28:53.950Z,98813.09
2022-12-31T02:31:32.091Z,98812.25
2022-12-31T02:34:02.905Z,98807.06
2022-12-31T02:36:36.512Z,98791.28
2022-12-31T02:39:06.238Z,98771.13
2022-12-31T02:41:52.124Z,98803.53
2022-12-31T02:44:28.653Z,98808.00
2022-12-31T02:47:07.957Z,98805.47
2022-12-31T02:49:40.910Z,98809.91
2022-12-31T02:52:23.195Z,98806.41
2022-12-31T02:55:11.797Z,98815.09
2022-12-31T02:57:42.620Z,98819.44
2022-12-31T03:00:32.552Z,98806.41
2022-12-31T03:03:01.398Z,98808.00
2022-12-31T03:05:32.293Z,98803.78
2022-12-31T03:07:59.421Z,98787.28
2022-12-31T03:10:26.484Z,98793.31
2022-12-31T03:12:54.351Z,98823.09
2022-12-31T03:15:30.278Z,98776.75
2022-12-31T03:18:10.563Z,98816.16
2022-12-31T03:20:59.492Z,98803.97
2022-12-31T03:23:33.277Z,98822.19
2022-12-31T03:26:01.111Z,98813.59
2022-12-31T03:28:30.423Z,98825.69
2022-12-31T03:31:02.269Z,98789.94
2022-12-31T03:33:41.326Z,98811.94
2022-12-31T03:36:12.022Z,98813.50
2022-12-31T03:38:39.502Z,98822.34
2022-12-31T03:41:07.017Z,98783.00
2022-12-31T03:43:33.987Z,98811.84
2022-12-31T03:46:01.706Z,98804.72
2022-12-31T03:48:29.102Z,98835.28
2022-12-31T03:50:56.179Z,98804.31
2022-12-31T03:53:23.291Z,98804.38
2022-12-31T03:55:54.134Z,98833.97
2022-12-31T03:58:21.994Z,98821.00
2022-12-31T04:00:49.376Z,98836.59
2022-12-31T04:03:16.644Z,98834.16
2022-12-31T04:05:43.748Z,98829.03
2022-12-31T04:08:10.818Z,98770.41
2022-12-31T04:10:37.851Z,98825.63
2022-12-31T04:13:05.032Z,98787.03
2022-12-31T04:15:32.091Z,98792.22
2022-12-31T04:17:59.291Z,98836.06
2022-12-31T04:20:26.343Z,98806.22
2022-12-31T04:22:53.454Z,98792.81
2022-12-31T04:25:20.479Z,98832.47
2022-12-31T04:27:48.040Z,98839.47
2022-12-31T04:30:15.473Z,98830.63
2022-12-31T04:32:42.905Z,98832.41
2022-12-31T04:35:11.456Z,98861.22
2022-12-31T04:37:38.695Z,98855.13
2022-12-31T04:40:07.199Z,98829.53
2022-12-31T04:42:35.307Z,98861.97
2022-12-31T04:45:02.421Z,98864.53
2022-12-31T04:47:30.801Z,98853.19
2022-12-31T04:49:57.767Z,98858.41
2022-12-31T04:52:25.552Z,98839.16
2022-12-31T04:54:52.579Z,98870.66
2022-12-31T04:57:19.504Z,98872.38
2022-12-31T04:59:46.682Z,98860.91
2022-12-31T05:02:13.916Z,98874.09
2022-12-31T05:04:41.385Z,98879.28
2022-12-31T05:07:08.445Z,98868.06
2022-12-31T05:09:35.428Z,98875.75
2022-12-31T05:12:02.450Z,98885.38
2022-12-31T05:14:29.577Z,98854.38
2022-12-31T05:16:57.151Z,98878.13
2022-12-31T05:19:24.481Z,98912.13
2022-12-31T05:22:10.434Z,98910.38
2022-12-31T05:24:37.526Z,98918.88
2022-12-31T05:27:04.578Z,98916.34
2022-12-31T05:29:31.723Z,98925.06
2022-12-31T05:31:58.697Z,98921.44
2022-12-31T05:34:25.778Z,98908.16
2022-12-31T05:36:53.062Z,98913.50
2022-12-31T05:39:20.270Z,98882.59
2022-12-31T05:41:47.306Z,98951.81
2022-12-31T05:44:14.443Z,98928.88
2022-12-31T05:46:41.407Z,98949.97
2022-12-31T05:49:08.497Z,98912.88
2022-12-31T05:51:35.614Z,98909.47
2022-12-31T05:54:02.615Z,98982.97
2022-12-31T05:56:29.641Z,98988.16
2022-12-31T05:58:56.535Z,98984.75
2022-12-31T06:01:23.709Z,98954.78
2022-12-31T06:03:50.888Z,98980.03
2022-12-31T06:06:17.946Z,98980.16
2022-12-31T06:08:44.920Z,99003.78
2022-12-31T06:11:11.910Z,98991.47
2022-12-31T06:13:39.419Z,99003.69
2022-12-31T06:16:10.707Z,98993.00
2022-12-31T06:18:37.865Z,99005.38
2022-12-31T06:21:05.251Z,99007.88
2022-12-31T06:23:32.298Z,98970.06
2022-12-31T06:26:05.864Z,99036.47
2022-12-31T06:28:33.416Z,99021.03
2022-12-31T06:31:02.083Z,99024.16
2022-12-31T06:33:29.988Z,99033.03
2022-12-31T06:36:02.192Z,99038.38
2022-12-31T06:38:31.507Z,99042.66
2022-12-31T06:41:06.900Z,99017.91
2022-12-31T06:43:38.156Z,99043.28
2022-12-31T06:46:07.351Z,99067.94
2022-12-31T06:48:34.725Z,99034.63
2022-12-31T06:51:16.979Z,99047.00
2022-12-31T06:53:48.847Z,99068.00
2022-12-31T06:56:23.354Z,99057.41
2022-12-31T06:58:52.905Z,99069.47
2022-12-31T07:01:22.866Z,99080.03
2022-12-31T07:03:58.827Z,99084.38
2022-12-31T07:06:44.338Z,99069.47
2022-12-31T07:09:31.349Z,99094.03
2022-12-31T07:12:09.560Z,99082.75
2022-12-31T07:14:44.860Z,98988.53
2022-12-31T07:17:17.845Z,99095.88
2022-12-31T07:20:01.483Z,99104.53
2022-12-31T07:22:29.474Z,99090.53
2022-12-31T07:24:56.808Z,99095.78
2022-12-31T07:27:23.713Z,99121.16
2022-12-31T07:30:05.884Z,99129.00
2022-12-31T07:32:54.067Z,99116.88
2022-12-31T07:35:35.492Z,99129.91
2022-12-31T07:38:11.431Z,99136.94
2022-12-31T07:41:10.037Z,99141.22
2022-12-31T07:43:55.900Z,99133.56
2022-12-31T07:46:36.122Z,99137.91
2022-12-31T07:49:04.254Z,99137.16
2022-12-31T07:51:31.466Z,99110.91
2022-12-31T07:53:58.429Z,99154.66
2022-12-31T07:56:26.600Z,99129.28
2022-12-31T07:59:02.717Z,99153.00
2022-12-31T08:01:55.549Z,99146.06
2022-12-31T08:04:39.444Z,99170.34
2022-12-31T08:07:45.493Z,99162.56
2022-12-31T08:10:27.280Z,99160.59
2022-12-31T08:13:02.429Z,99145.91
2022-12-31T08:15:30.707Z,99176.47
2022-12-31T08:17:58.272Z,99175.53
2022-12-31T08:20:27.121Z,99160.50
2022-12-31T08:23:06.088Z,99180.13
2022-12-31T08:25:54.896Z,99178.56
2022-12-31T08:28:31.088Z,99189.03
2022-12-31T08:31:17.167Z,99178.81
2022-12-31T08:33:51.856Z,99179.03
2022-12-31T08:36:49.936Z,99184.38
2022-12-31T08:39:42.852Z,99174.78
2022-12-31T08:42:25.134Z,99152.75
2022-12-31T08:45:09.050Z,99172.13
2022-12-31T08:48:01.567Z,99201.94
2022-12-31T08:50:29.269Z,99178.22
2022-12-31T08:52:56.827Z,99196.66
2022-12-31T08:55:24.775Z,99215.03
2022-12-31T08:58:21.543Z,99210.75
2022-12-31T09:00:53.125Z,99186.28
2022-12-31T09:03:27.290Z,99207.34
2022-12-31T09:06:21.033Z,99202.16
2022-12-31T09:09:09.147Z,99216.19
2022-12-31T09:11:57.552Z,99216.03
2022-12-31T09:14:42.938Z,99217.84
2022-12-31T09:17:31.329Z,99224.78
2022-12-31T09:19:58.753Z,99216.13
2022-12-31T09:22:26.015Z,99201.88
2022-12-31T09:24:53.345Z,99224.66
2022-12-31T09:27:40.252Z,99219.63
2022-12-31T09:30:16.409Z,99223.72
2022-12-31T09:33:15.376Z,99221.06
2022-12-31T09:35:46.413Z,99237.66
2022-12-31T09:38:32.268Z,99245.53
2022-12-31T09:41:30.522Z,99253.13
2022-12-31T09:44:16.122Z,99254.75
2022-12-31T09:46:59.000Z,99261.56
2022-12-31T09:49:47.751Z,99267.56
2022-12-31T09:52:29.967Z,99230.53
2022-12-31T09:55:12.384Z,99272.03
2022-12-31T09:58:11.168Z,99276.56
2022-12-31T10:00:52.395Z,99268.03
2022-12-31T10:03:57.232Z,99275.81
2022-12-31T10:07:06.185Z,99278.53
2022-12-31T10:09:51.857Z,99275.19
2022-12-31T10:12:34.144Z,99285.75
2022-12-31T10:15:23.023Z,99287.44
2022-12-31T10:18:14.007Z,99287.31
2022-12-31T10:21:02.159Z,99299.19
2022-12-31T10:23:35.294Z,99314.56
2022-12-31T10:26:11.193Z,99310.25
2022-12-31T10:28:49.081Z,99321.59
2022-12-31T10:31:31.754Z,99323.28
2022-12-31T10:34:25.700Z,99327.84
2022-12-31T10:37:06.636Z,99329.50
2022-12-31T10:39:33.548Z,99325.03
2022-12-31T10:42:24.840Z,99319.75
2022-12-31T10:45:19.587Z,99319.75
2022-12-31T10:48:04.789Z,99315.41
2022-12-31T10:50:58.288Z,99317.16
2022-12-31T10:53:44.231Z,99320.53
2022-12-31T10:56:20.808Z,99320.47
2022-12-31T10:59:42.543Z,99325.59
2022-12-31T11:02:40.645Z,99311.91
2022-12-31T11:05:26.408Z,99322.41
2022-12-31T11:08:43.503Z,99323.47
2022-12-31T11:11:41.120Z,99320.78
2022-12-31T11:14:20.342Z,99343.38
2022-12-31T11:17:32.659Z,99339.88
2022-12-31T11:20:36.376Z,99363.34
2022-12-31T11:23:30.629Z,99365.00
2022-12-31T11:26:27.007Z,99377.78
2022-12-31T11:29:22.061Z,99394.09
2022-12-31T11:31:58.740Z,99399.00
2022-12-31T11:34:38.028Z,99393.81
2022-12-31T11:37:22.375Z,99386.94
2022-12-31T11:40:16.992Z,99390.38
2022-12-31T11:42:53.300Z,99388.50
2022-12-31T11:45:50.401Z,99404.09
2022-12-31T11:48:45.786Z,99412.72
2022-12-31T11:51:32.255Z,99409.16
2022-12-31T11:54:20.704Z,99414.34
2022-12-31T11:57:03.108Z,99429.13
2022-12-31T11:59:30.177Z,99415.34
2022-12-31T12:02:26.905Z,99419.75
2022-12-31T12:04:58.026Z,99400.06
2022-12-31T12:07:26.554Z,99428.38
2022-12-31T12:09:55.826Z,99432.63
2022-12-31T12:12:23.034Z,99419.16
2022-12-31T12:14:54.156Z,99399.88
2022-12-31T12:17:33.385Z,99442.03
2022-12-31T12:20:04.586Z,99424.44
2022-12-31T12:22:31.786Z,99403.19
2022-12-31T12:25:08.095Z,99426.00
2022-12-31T12:27:36.510Z,99435.50
2022-12-31T12:30:30.839Z,99450.38
2022-12-31T12:33:04.984Z,99455.38
2022-12-31T12:35:37.032Z,99452.94
2022-12-31T12:38:19.611Z,99434.38
2022-12-31T12:40:57.066Z,99464.78
2022-12-31T12:43:30.044Z,99450.72
2022-12-31T12:46:02.504Z,99439.25
2022-12-31T12:48:44.723Z,99460.25
2022-12-31T12:51:30.373Z,99475.03
2022-12-31T12:54:07.457Z,99465.31
2022-12-31T12:56:47.253Z,99484.50
2022-12-31T12:59:40.234Z,99481.13
2022-12-31T13:02:41.084Z,99481.00
2022-12-31T13:05:29.634Z,99482.63
2022-12-31T13:08:18.333Z,99481.84
2022-12-31T13:10:48.250Z,99481.78
2022-12-31T13:13:48.593Z,99472.25
2022-12-31T13:16:32.237Z,99465.19
2022-12-31T13:19:16.930Z,99448.91
2022-12-31T13:21:47.189Z,99473.50
2022-12-31T13:24:23.820Z,99485.53
2022-12-31T13:26:57.126Z,99485.53
2022-12-31T13:29:28.460Z,99502.75
2022-12-31T13:31:57.868Z,99492.25
2022-12-31T13:34:31.344Z,99465.91
2022-12-31T13:37:05.785Z,99479.19
2022-12-31T13:39:39.999Z,99447.19
2022-12-31T13:42:29.304Z,99491.25
2022-12-31T13:45:03.644Z,99474.47
2022-12-31T13:47:44.805Z,99462.34
2022-12-31T13:50:42.717Z,99489.00
2022-12-31T13:53:25.994Z,99484.75
2022-12-31T13:56:24.143Z,99494.13
2022-12-31T13:59:11.945Z,99488.72
2022-12-31T14:02:16.785Z,99500.84
2022-12-31T14:04:50.681Z,99497.34
2022-12-31T14:07:34.623Z,99467.22
2022-12-31T14:10:15.209Z,99497.41
2022-12-31T14:13:05.778Z,99477.63
2022-12-31T14:15:46.908Z,99500.66
2022-12-31T14:18:19.997Z,99506.75
2022-12-31T14:21:13.113Z,99513.72
2022-12-31T14:24:06.458Z,99493.47
2022-12-31T14:26:43.621Z,99497.34
2022-12-31T14:29:10.646Z,99501.50
2022-12-31T14:31:46.698Z,99489.31
2022-12-31T14:34:31.718Z,99482.44
2022-12-31T14:36:58.690Z,99490.16
2022-12-31T14:39:49.435Z,99485.94
2022-12-31T14:42:25.768Z,99486.84
2022-12-31T14:45:20.750Z,99478.34
2022-12-31T14:47:56.616Z,99465.78
2022-12-31T14:50:29.896Z,99490.50
2022-12-31T14:53:12.247Z,99457.84
2022-12-31T14:55:41.157Z,99479.41
2022-12-31T14:58:38.287Z,99484.59
2022-12-31T15:01:26.521Z,99486.91
2022-12-31T15:03:57.855Z,99488.53
2022-12-31T15:06:24.821Z,99501.38
2022-12-31T15:09:08.642Z,99488.28
2022-12-31T15:11:54.102Z,99500.31
2022-12-31T15:14:37.813Z,99460.03
2022-12-31T15:17:17.370Z,99493.13
2022-12-31T15:20:02.677Z,99481.31
2022-12-31T15:22:42.894Z,99506.69
2022-12-31T15:25:41.400Z,99497.03
2022-12-31T15:28:24.848Z,99502.16
2022-12-31T15:30:57.930Z,99486.16
2022-12-31T15:33:40.296Z,99488.91
2022-12-31T15:36:39.018Z,99498.47
2022-12-31T15:39:12.184Z,99510.75
2022-12-31T15:44:50.264Z,99496.09
2022-12-31T15:47:31.621Z,99503.75
2022-12-31T15:50:04.183Z,99503.75
2022-12-31T15:52:45.070Z,99487.41
2022-12-31T15:55:23.421Z,99475.03
2022-12-31T15:57:50.966Z,99486.63
2022-12-31T16:00:23.437Z,99489.25
2022-12-31T16:02:54.830Z,99468.09
2022-12-31T16:05:25.228Z,99478.44
2022-12-31T16:07:57.293Z,99456.28
2022-12-31T16:10:30.396Z,99480.00
2022-12-31T16:12:59.676Z,99488.56
2022-12-31T16:15:33.110Z,99500.09
2022-12-31T16:18:02.850Z,99504.34
2022-12-31T16:20:31.684Z,99506.00
2022-12-31T16:23:02.468Z,99487.63
2022-12-31T16:25:32.937Z,99456.66
2022-12-31T16:28:02.767Z,99486.66
2022-12-31T16:30:32.193Z,99510.41
2022-12-31T16:33:03.152Z,99472.53
2022-12-31T16:35:36.683Z,99489.63
2022-12-31T16:38:18.776Z,99505.28
2022-12-31T16:41:01.159Z,99488.69
2022-12-31T16:43:31.433Z,99488.47
2022-12-31T16:46:27.194Z,99481.50
2022-12-31T16:49:07.282Z,99493.81
2022-12-31T16:51:37.538Z,99489.31
2022-12-31T16:54:04.908Z,99449.72
2022-12-31T16:56:34.693Z,99474.56
2022-12-31T16:59:05.295Z,99474.56
2022-12-31T17:01:35.888Z,99456.13
2022-12-31T17:04:09.034Z,99441.78
2022-12-31T17:06:36.436Z,99483.94
2022-12-31T17:09:23.119Z,99483.94
2022-12-31T17:12:15.869Z,99410.53
2022-12-31T17:14:50.921Z,99440.00
2022-12-31T17:17:38.075Z,99465.72
2022-12-31T17:20:10.932Z,99472.78
2022-12-31T17:22:43.147Z,99457.00
2022-12-31T17:25:25.994Z,99436.78
2022-12-31T17:28:16.625Z,99474.81
2022-12-31T17:30:46.309Z,99445.84
2022-12-31T17:33:13.348Z,99467.75
2022-12-31T17:35:45.251Z,99427.19
2022-12-31T17:38:27.781Z,99466.06
2022-12-31T17:41:14.135Z,99458.44
2022-12-31T17:43:41.943Z,99455.00
2022-12-31T17:46:17.065Z,99449.00
2022-12-31T17:48:46.348Z,99397.41
2022-12-31T17:51:13.478Z,99430.03
2022-12-31T17:53:40.529Z,99404.34
2022-12-31T17:56:16.789Z,99408.88
2022-12-31T17:58:45.771Z,99387.84
2022-12-31T18:01:16.351Z,99425.63
2022-12-31T18:03:43.997Z,99430.09
2022-12-31T18:06:16.499Z,99414.38
2022-12-31T18:08:43.955Z,99431.91
2022-12-31T18:11:21.179Z,99449.13
2022-12-31T18:13:48.323Z,99389.31
2022-12-31T18:16:15.648Z,99418.41
2022-12-31T18:18:43.800Z,99397.16
2022-12-31T18:21:32.664Z,99424.50
2022-12-31T18:26:28.284Z,99427.81
2022-12-31T18:29:01.302Z,99401.41
2022-12-31T18:31:32.360Z,99413.81
2022-12-31T18:34:01.619Z,99404.88
2022-12-31T18:36:29.109Z,99377.59
2022-12-31T18:39:03.024Z,99411.94
2022-12-31T18:41:45.903Z,99352.41
2022-12-31T18:44:15.133Z,99388.56
2022-12-31T18:46:43.155Z,99385.81
2022-12-31T18:49:10.254Z,99397.41
2022-12-31T18:51:37.364Z,99389.31
2022-12-31T18:54:05.084Z,99400.78
2022-12-31T18:56:32.439Z,99371.91
2022-12-31T18:59:02.635Z,99351.75
2022-12-31T19:01:33.988Z,99366.72
2022-12-31T19:04:13.433Z,99369.19
2022-12-31T19:06:40.908Z,99352.59
2022-12-31T19:09:23.759Z,99381.44
2022-12-31T19:11:54.956Z,99371.19
2022-12-31T19:14:24.435Z,99372.81
2022-12-31T19:16:53.474Z,99371.66
2022-12-31T19:19:21.603Z,99351.31
2022-12-31T19:21:48.902Z,99352.28
2022-12-31T19:24:19.528Z,99362.84
2022-12-31T19:26:46.964Z,99358.38
2022-12-31T19:29:19.665Z,99358.38
2022-12-31T19:31:47.140Z,99339.84
2022-12-31T19:34:14.268Z,99350.06
2022-12-31T19:36:44.329Z,99310.53
2022-12-31T19:39:17.656Z,99344.13
2022-12-31T19:41:45.698Z,99344.13
2022-12-31T19:44:19.792Z,99341.53
2022-12-31T19:46:47.246Z,99335.31
2022-12-31T19:49:15.401Z,99339.63
2022-12-31T19:51:42.767Z,99293.16
2022-12-31T19:54:12.213Z,99320.47
2022-12-31T19:56:39.475Z,99322.09
2022-12-31T19:59:07.827Z,99287.38
2022-12-31T20:01:34.893Z,99280.53
2022-12-31T20:04:02.077Z,99302.16
2022-12-31T20:06:29.152Z,99303.81
2022-12-31T20:08:56.214Z,99299.38
2022-12-31T20:11:24.295Z,99255.44
2022-12-31T20:13:52.915Z,99301.97
2022-12-31T20:16:22.526Z,99297.63
2022-12-31T20:18:50.806Z,99282.66
2022-12-31T20:21:24.413Z,99301.97
2022-12-31T20:23:52.956Z,99302.75
2022-12-31T20:26:21.880Z,99302.03
2022-12-31T20:28:49.593Z,99267.53
2022-12-31T20:31:23.483Z,99246.09
2022-12-31T20:33:51.102Z,99305.47
2022-12-31T20:36:18.320Z,99276.06
2022-12-31T20:38:45.883Z,99311.09
2022-12-31T20:41:18.102Z,99313.69
2022-12-31T20:43:46.281Z,99312.72
2022-12-31T20:46:19.053Z,99302.38
2022-12-31T20:48:47.468Z,99300.75
2022-12-31T20:51:17.039Z,99297.25
2022-12-31T20:53:49.191Z,99267.81
2022-12-31T20:56:17.513Z,99222.91
2022-12-31T20:58:45.142Z,99239.38
2022-12-31T21:01:12.962Z,99256.84
2022-12-31T21:06:29.773Z,99247.38
2022-12-31T21:08:58.472Z,99167.84
2022-12-31T21:11:44.438Z,99185.69
2022-12-31T21:14:11.454Z,99216.41
2022-12-31T21:16:38.606Z,99187.97
2022-12-31T21:19:05.695Z,99231.13
2022-12-31T21:21:33.039Z,99218.94
2022-12-31T21:24:00.038Z,99188.94
2022-12-31T21:26:27.511Z,99176.97
2022-12-31T21:28:54.536Z,99192.34
2022-12-31T21:31:21.627Z,99181.78
2022-12-31T21:33:49.068Z,99176.59
2022-12-31T21:36:16.304Z,99139.69
2022-12-31T21:38:43.955Z,99161.25
2022-12-31T21:41:33.459Z,99182.03
2022-12-31T21:44:01.308Z,99190.72
2022-12-31T21:46:28.958Z,99158.25
2022-12-31T21:48:58.247Z,99174.94
2022-12-31T21:51:26.111Z,99171.44
2022-12-31T21:53:53.341Z,99181.88
2022-12-31T21:56:21.651Z,99158.00
2022-12-31T21:59:12.335Z,99198.47
2022-12-31T22:01:58.797Z,99180.31
2022-12-31T22:09:57.526Z,99169.94
2022-12-31T22:12:24.605Z,99155.88
2022-12-31T22:15:15.492Z,99159.44
2022-12-31T22:17:38.704Z,99136.81
2022-12-31T22:20:26.608Z,99096.34
2022-12-31T22:22:53.237Z,99148.31
2022-12-31T22:25:20.478Z,99116.88
2022-12-31T22:28:11.545Z,99107.31
2022-12-31T22:30:35.203Z,99128.53
2022-12-31T22:33:02.318Z,99135.78
2022-12-31T22:35:29.357Z,99130.59
2022-12-31T22:38:00.232Z,99118.28
2022-12-31T22:40:30.377Z,99126.28
2022-12-31T22:42:57.341Z,99119.34
2022-12-31T22:45:24.426Z,99116.94
2022-12-31T22:47:51.544Z,99115.97
2022-12-31T22:50:18.984Z,99119.47
2022-12-31T22:52:45.985Z,99113.38
2022-12-31T22:55:12.973Z,99089.69
2022-12-31T22:57:40.018Z,99096.22
2022-12-31T23:00:12.466Z,99102.31
2022-12-31T23:02:42.022Z,99062.03
2022-12-31T23:05:14.968Z,99097.06
2022-12-31T23:07:43.063Z,99057.69
2022-12-31T23:10:29.696Z,99096.25
2022-12-31T23:12:56.683Z,99096.34
2022-12-31T23:15:42.429Z,99094.63
2022-12-31T23:18:28.065Z,99082.59
2022-12-31T23:21:13.557Z,99060.81
2022-12-31T23:23:40.581Z,99065.41
2022-12-31T23:26:07.534Z,99059.34
2022-12-31T23:28:34.575Z,99063.75
2022-12-31T23:31:06.270Z,99059.50
2022-12-31T23:33:33.240Z,99021.84
2022-12-31T23:36:07.268Z,99060.41
2022-12-31T23:38:34.422Z,99056.03
2022-12-31T23:41:20.694Z,99049.19
2022-12-31T23:43:47.908Z,99049.22
2022-12-31T23:46:16.644Z,99042.94
2022-12-31T23:48:43.860Z,99004.44
2022-12-31T23:51:10.893Z,99000.00
2022-12-31T23:53:38.801Z,99038.84
2022-12-31T23:56:20.885Z,99044.09
2022-12-31T23:58:54.316Z,99046.69
